Terminal Aerodrome Forecast
Issued by NWS

Home | Current Version | Previous Version | Text Only | Print | Product List | Glossary On
Versions: 1 2 3 4 5 6 7 8 9 10 11 12 13
000
FTAK31 PAFA 242340
TAFAFA
TAF
PAFA 242340Z 2500/2606 09007KT P6SM VCSH SCT050 BKN070
     FM251000 04005KT P6SM BKN050 BKN100
     FM252200 15005KT P6SM SCT100 BKN250=

USA.gov is the U.S. government's official web portal to all federal, state and local government web resources and services.